Time;durP1;ratioP1;P1;durP2;ratioP2;P2;SDS_P1;SDS_P2;PMS_P1;PMS_P2;Temp;Humidity;BMP_temperature;BMP_pressure;BME280_temperature;BME280_humidity;BME280_pressure;Samples;Min_cycle;Max_cycle;Signal;HPM_P1;HPM_P2
2022/05/30 00:01:17;;;;;;;1.10;1.10;;;9.70;61.30;;;;;;944116;149;27298;-73
2022/05/30 00:03:44;;;;;;;1.87;1.10;;;9.60;61.30;;;;;;943880;149;27318;-73
2022/05/30 00:06:14;;;;;;;2.73;1.00;;;9.60;61.40;;;;;;943940;149;27356;-73
2022/05/30 00:08:40;;;;;;;1.00;1.00;;;9.50;61.40;;;;;;943545;149;28080;-74
2022/05/30 00:11:07;;;;;;;1.40;1.30;;;9.50;61.60;;;;;;944027;149;27322;-74
2022/05/30 00:13:33;;;;;;;2.40;1.13;;;9.40;61.70;;;;;;943600;149;27314;-74
2022/05/30 00:16:05;;;;;;;1.43;1.33;;;9.40;61.80;;;;;;944220;149;28025;-73
2022/05/30 00:18:32;;;;;;;1.57;1.27;;;9.30;62.10;;;;;;943630;149;27369;-74
2022/05/30 00:20:59;;;;;;;1.00;1.00;;;9.30;62.10;;;;;;943538;149;27361;-74
2022/05/30 00:23:25;;;;;;;1.10;1.00;;;9.20;62.40;;;;;;944145;149;27333;-74
2022/05/30 00:25:52;;;;;;;0.80;0.80;;;9.20;62.50;;;;;;944340;149;27243;-74
2022/05/30 00:28:18;;;;;;;2.10;1.40;;;9.10;62.70;;;;;;944683;149;27364;-74
2022/05/30 00:30:45;;;;;;;1.73;1.10;;;9.10;62.90;;;;;;945688;151;27377;-73
2022/05/30 00:33:12;;;;;;;1.43;1.10;;;9.00;63.00;;;;;;945009;151;27384;-73
2022/05/30 00:35:38;;;;;;;1.23;1.20;;;9.00;63.00;;;;;;945707;151;27340;-73
2022/05/30 00:38:05;;;;;;;1.03;1.03;;;9.00;63.20;;;;;;945453;151;27409;-74
2022/05/30 00:40:31;;;;;;;2.10;1.13;;;9.00;63.30;;;;;;945445;151;27332;-73
2022/05/30 00:43:16;;;;;;;1.00;0.90;;;8.90;63.40;;;;;;944498;151;27282;-73
2022/05/30 00:45:43;;;;;;;1.20;1.20;;;8.90;63.50;;;;;;945691;151;27369;-74
2022/05/30 00:48:09;;;;;;;1.50;0.97;;;8.90;63.60;;;;;;944624;151;27330;-74
2022/05/30 00:50:36;;;;;;;1.07;1.07;;;8.90;63.60;;;;;;945648;151;27883;-74
2022/05/30 00:53:02;;;;;;;1.63;1.50;;;8.80;63.70;;;;;;944423;149;27396;-73
2022/05/30 00:55:29;;;;;;;2.07;1.27;;;8.80;63.80;;;;;;945272;151;27814;-74
2022/05/30 00:57:56;;;;;;;1.10;1.10;;;8.80;63.90;;;;;;945443;151;27481;-74
2022/05/30 01:00:22;;;;;;;1.43;1.20;;;8.80;64.00;;;;;;944700;151;27457;-74
2022/05/30 01:08:03;;;;;;;1.23;1.13;;;8.70;64.10;;;;;;945185;151;27290;-74
2022/05/30 01:10:29;;;;;;;1.43;1.33;;;8.60;63.90;;;;;;944822;151;27856;-74
2022/05/30 01:12:56;;;;;;;1.30;1.10;;;8.60;64.10;;;;;;945217;151;27463;-73
2022/05/30 01:15:26;;;;;;;0.97;0.97;;;8.50;64.20;;;;;;945268;151;27329;-74
2022/05/30 01:18:01;;;;;;;1.20;1.10;;;8.40;64.30;;;;;;945210;151;27830;-74
2022/05/30 01:20:52;;;;;;;1.20;1.20;;;8.40;64.60;;;;;;945136;151;27802;-74
2022/05/30 01:23:37;;;;;;;1.10;1.10;;;8.40;64.70;;;;;;944508;151;27864;-75
2022/05/30 01:26:09;;;;;;;1.30;1.20;;;8.30;64.70;;;;;;945826;151;27360;-75
2022/05/30 01:28:39;;;;;;;1.30;1.20;;;8.30;64.80;;;;;;944239;151;29176;-75
2022/05/30 01:31:05;;;;;;;1.60;1.50;;;8.20;64.90;;;;;;944151;149;27267;-75
2022/05/30 01:33:32;;;;;;;1.10;1.10;;;8.20;65.10;;;;;;943843;149;27340;-75
2022/05/30 01:35:59;;;;;;;1.30;1.20;;;8.10;65.20;;;;;;943729;149;27837;-75
2022/05/30 01:38:27;;;;;;;1.13;1.13;;;8.10;65.40;;;;;;944153;149;27442;-75
2022/05/30 01:40:52;;;;;;;1.30;1.20;;;8.00;65.30;;;;;;943616;149;27457;-75
2022/05/30 01:43:18;;;;;;;1.10;1.10;;;8.00;65.60;;;;;;943961;149;27391;-75
2022/05/30 01:45:45;;;;;;;8.33;1.77;;;8.00;65.80;;;;;;944398;149;27423;-74
2022/05/30 01:48:12;;;;;;;1.43;1.17;;;8.00;66.00;;;;;;943764;149;27329;-75
2022/05/30 01:50:38;;;;;;;1.20;1.20;;;8.00;66.30;;;;;;944309;149;27330;-75
2022/05/30 01:53:05;;;;;;;1.37;1.10;;;8.00;66.40;;;;;;943929;149;27425;-75
2022/05/30 01:55:32;;;;;;;1.30;1.30;;;7.90;66.40;;;;;;943363;149;27471;-74
2022/05/30 01:57:58;;;;;;;1.33;1.20;;;7.90;66.40;;;;;;944492;149;27320;-75
2022/05/30 02:00:25;;;;;;;1.07;1.00;;;7.90;66.40;;;;;;944316;149;27724;-75
2022/05/30 02:02:51;;;;;;;0.93;0.93;;;7.90;66.50;;;;;;943394;149;27430;-75
2022/05/30 02:05:18;;;;;;;1.20;1.10;;;7.80;66.60;;;;;;944123;149;27508;-74
2022/05/30 02:07:44;;;;;;;1.40;1.40;;;7.80;66.60;;;;;;944039;149;27362;-74
2022/05/30 02:10:11;;;;;;;1.30;1.20;;;7.80;66.70;;;;;;943879;149;27753;-75
2022/05/30 02:12:37;;;;;;;2.43;1.23;;;7.80;66.80;;;;;;944115;149;27306;-74
2022/05/30 02:15:04;;;;;;;2.20;1.20;;;7.80;66.90;;;;;;944075;149;27341;-74
2022/05/30 02:17:34;;;;;;;1.37;1.10;;;7.80;67.20;;;;;;943578;149;27407;-74
2022/05/30 02:20:00;;;;;;;1.90;1.40;;;7.80;67.20;;;;;;943969;149;27466;-73
2022/05/30 02:22:29;;;;;;;1.30;1.20;;;7.80;67.50;;;;;;943338;149;27330;-74
2022/05/30 02:24:53;;;;;;;1.47;1.37;;;7.70;67.40;;;;;;944316;149;27810;-74
2022/05/30 02:27:20;;;;;;;1.03;1.03;;;7.70;67.60;;;;;;944014;149;27629;-74
2022/05/30 02:29:46;;;;;;;1.23;1.23;;;7.70;67.70;;;;;;944710;149;27464;-73
2022/05/30 02:32:13;;;;;;;1.70;1.60;;;7.70;67.70;;;;;;945045;151;27501;-74
2022/05/30 02:37:24;;;;;;;2.00;1.80;;;7.70;68.20;;;;;;945264;151;27289;-73
2022/05/30 02:39:50;;;;;;;1.87;1.77;;;7.70;68.20;;;;;;945428;151;27314;-74
2022/05/30 02:42:17;;;;;;;1.80;1.70;;;7.80;68.60;;;;;;945366;151;27462;-73
2022/05/30 02:44:44;;;;;;;2.43;1.90;;;7.80;68.90;;;;;;945310;151;27444;-73
2022/05/30 02:47:10;;;;;;;3.17;2.20;;;7.80;68.80;;;;;;944922;151;27398;-74
2022/05/30 02:49:37;;;;;;;1.50;1.40;;;7.80;68.80;;;;;;944825;151;27404;-73
2022/05/30 02:52:03;;;;;;;1.70;1.60;;;7.80;68.70;;;;;;933995;151;27382;-73
2022/05/30 02:54:30;;;;;;;1.50;1.40;;;7.80;68.60;;;;;;929375;154;27431;-73
2022/05/30 02:56:57;;;;;;;2.00;1.53;;;7.80;68.40;;;;;;930717;152;27442;-73
2022/05/30 02:59:23;;;;;;;1.30;1.30;;;7.80;68.20;;;;;;930020;153;27361;-74
2022/05/30 03:01:50;;;;;;;1.40;1.40;;;7.70;68.20;;;;;;928785;151;27338;-73
2022/05/30 03:04:16;;;;;;;1.50;1.40;;;7.70;68.20;;;;;;930696;152;27278;-74
2022/05/30 03:06:43;;;;;;;1.37;1.30;;;7.60;68.20;;;;;;930995;152;27429;-73
2022/05/30 03:09:10;;;;;;;1.50;1.40;;;7.60;68.20;;;;;;945602;151;27438;-74
2022/05/30 03:11:36;;;;;;;1.43;1.40;;;7.60;68.20;;;;;;928847;154;27858;-73
2022/05/30 03:14:03;;;;;;;1.97;1.70;;;7.50;68.90;;;;;;930101;154;27435;-73
2022/05/30 03:16:29;;;;;;;1.90;1.80;;;7.50;68.50;;;;;;928571;153;27420;-74
2022/05/30 03:18:56;;;;;;;1.30;1.30;;;7.50;68.80;;;;;;937143;151;27308;-73
2022/05/30 03:21:22;;;;;;;2.73;1.70;;;7.40;68.90;;;;;;928316;152;27439;-73
2022/05/30 03:23:50;;;;;;;1.20;1.17;;;7.40;69.00;;;;;;928430;154;27376;-73
2022/05/30 03:26:16;;;;;;;1.63;1.47;;;7.40;69.10;;;;;;928555;153;27325;-73
2022/05/30 03:28:42;;;;;;;1.67;1.57;;;7.40;69.00;;;;;;945840;151;27313;-73
2022/05/30 03:31:09;;;;;;;1.30;1.20;;;7.40;69.00;;;;;;936141;148;27346;-74
2022/05/30 03:33:35;;;;;;;1.40;1.30;;;7.40;69.20;;;;;;944938;151;27395;-74
2022/05/30 03:36:02;;;;;;;1.53;1.20;;;7.30;69.20;;;;;;928608;154;27484;-74
2022/05/30 03:38:29;;;;;;;1.43;1.33;;;7.30;69.20;;;;;;936421;151;27859;-74
2022/05/30 03:40:55;;;;;;;1.50;1.40;;;7.30;69.20;;;;;;934839;151;27844;-73
2022/05/30 03:43:22;;;;;;;1.40;1.30;;;7.30;69.30;;;;;;947585;151;27303;-73
2022/05/30 03:45:48;;;;;;;1.47;1.37;;;7.30;69.30;;;;;;937345;151;27366;-74
2022/05/30 03:48:15;;;;;;;1.60;1.50;;;7.30;69.50;;;;;;944841;151;27352;-74
2022/05/30 03:50:41;;;;;;;1.40;1.30;;;7.30;69.70;;;;;;930662;153;27782;-73
2022/05/30 03:53:08;;;;;;;1.40;1.30;;;7.30;70.00;;;;;;930356;154;27435;-74
2022/05/30 03:55:35;;;;;;;1.43;1.33;;;7.30;70.20;;;;;;944798;151;27305;-74
2022/05/30 03:58:02;;;;;;;1.70;1.60;;;7.40;70.40;;;;;;936683;151;27401;-73
2022/05/30 04:00:28;;;;;;;2.00;1.90;;;7.40;70.40;;;;;;934674;151;27412;-74
2022/05/30 04:02:54;;;;;;;1.57;1.50;;;7.50;70.30;;;;;;945448;151;27348;-73
2022/05/30 04:05:21;;;;;;;2.30;2.10;;;7.50;70.50;;;;;;929513;151;27357;-73
2022/05/30 04:07:48;;;;;;;2.20;2.00;;;7.60;70.90;;;;;;944973;151;27306;-73
2022/05/30 04:10:14;;;;;;;1.80;1.70;;;7.70;71.20;;;;;;938722;151;27742;-74
2022/05/30 04:12:42;;;;;;;2.00;1.90;;;7.70;70.90;;;;;;944863;151;27407;-73
2022/05/30 04:15:08;;;;;;;2.23;2.13;;;7.80;71.50;;;;;;936261;151;27386;-74
2022/05/30 04:17:34;;;;;;;1.90;1.80;;;7.90;71.60;;;;;;930556;153;27357;-73
2022/05/30 04:20:01;;;;;;;1.80;1.70;;;8.00;71.90;;;;;;929542;151;27336;-73
2022/05/30 04:22:27;;;;;;;2.23;2.03;;;8.10;72.00;;;;;;928057;153;27448;-73
2022/05/30 04:24:55;;;;;;;2.13;2.03;;;8.20;71.80;;;;;;937931;151;27321;-73
2022/05/30 04:27:21;;;;;;;2.20;2.10;;;8.40;72.20;;;;;;928498;153;27885;-74
2022/05/30 04:29:48;;;;;;;2.23;2.03;;;8.50;72.30;;;;;;929185;152;27435;-74
2022/05/30 04:32:16;;;;;;;3.17;2.60;;;8.60;72.40;;;;;;944088;148;27310;-74
2022/05/30 04:34:40;;;;;;;1.90;1.80;;;8.70;72.40;;;;;;928289;150;27359;-73
2022/05/30 04:37:07;;;;;;;1.90;1.80;;;8.90;72.50;;;;;;927146;150;27277;-74
2022/05/30 04:39:34;;;;;;;1.97;1.50;;;9.00;72.50;;;;;;935971;150;27309;-74
2022/05/30 04:42:00;;;;;;;2.70;2.03;;;9.10;72.70;;;;;;942095;149;27814;-74
2022/05/30 04:44:27;;;;;;;1.90;1.80;;;9.20;72.40;;;;;;942169;149;27451;-73
2022/05/30 04:46:53;;;;;;;2.03;1.93;;;9.40;72.30;;;;;;941582;149;27321;-74
2022/05/30 04:49:20;;;;;;;2.20;2.00;;;9.60;72.60;;;;;;942311;149;27519;-74
2022/05/30 04:51:46;;;;;;;2.10;1.90;;;9.70;72.90;;;;;;942405;149;27397;-73
2022/05/30 04:54:13;;;;;;;2.00;1.80;;;10.00;73.50;;;;;;941657;149;27466;-73
2022/05/30 04:56:40;;;;;;;2.53;1.63;;;10.40;74.40;;;;;;941958;149;28539;-74
2022/05/30 04:59:06;;;;;;;2.87;1.77;;;10.80;74.60;;;;;;942040;149;27735;-74
2022/05/30 05:01:33;;;;;;;2.00;1.90;;;11.40;75.80;;;;;;941859;149;27903;-74
2022/05/30 05:03:59;;;;;;;1.90;1.80;;;12.00;75.70;;;;;;941339;149;27406;-74
2022/05/30 05:06:26;;;;;;;2.10;1.90;;;12.70;75.60;;;;;;943063;149;27393;-74
2022/05/30 05:08:55;;;;;;;1.60;1.50;;;13.40;75.30;;;;;;942992;149;27457;-74
2022/05/30 05:11:22;;;;;;;2.22;1.52;;;14.20;75.00;;;;;;940250;149;27296;-74
2022/05/30 05:13:49;;;;;;;1.60;1.50;;;15.10;74.10;;;;;;941749;149;27428;-74
2022/05/30 05:16:15;;;;;;;1.57;1.47;;;16.00;72.80;;;;;;942113;149;27419;-74
2022/05/30 05:18:42;;;;;;;1.67;1.57;;;16.90;71.40;;;;;;943426;149;27392;-74
2022/05/30 05:21:08;;;;;;;1.50;1.40;;;17.80;69.50;;;;;;942537;149;27362;-74
2022/05/30 05:23:35;;;;;;;2.20;1.67;;;18.70;67.90;;;;;;941687;149;27360;-74
2022/05/30 05:26:02;;;;;;;2.10;2.00;;;19.30;64.40;;;;;;942668;149;27346;-74
2022/05/30 05:28:28;;;;;;;1.90;1.80;;;19.90;62.10;;;;;;941238;149;27431;-74
2022/05/30 05:30:55;;;;;;;2.08;1.87;;;20.30;60.00;;;;;;942427;149;27446;-75
2022/05/30 05:33:21;;;;;;;1.98;1.87;;;20.50;58.70;;;;;;942252;149;27373;-74
2022/05/30 05:35:48;;;;;;;1.90;1.80;;;20.70;57.70;;;;;;941617;149;27365;-74
2022/05/30 05:38:15;;;;;;;1.70;1.60;;;20.70;57.00;;;;;;942279;149;27416;-74
2022/05/30 05:40:41;;;;;;;1.75;1.65;;;20.80;56.70;;;;;;942464;149;27336;-74
2022/05/30 05:43:08;;;;;;;1.85;1.75;;;20.90;56.50;;;;;;942183;149;27871;-74
2022/05/30 05:45:34;;;;;;;1.72;1.62;;;20.90;56.10;;;;;;942290;149;27320;-74
2022/05/30 05:48:01;;;;;;;1.92;1.72;;;21.00;55.80;;;;;;941541;149;27357;-74
2022/05/30 05:50:27;;;;;;;1.60;1.50;;;21.00;55.40;;;;;;941281;149;27386;-74
2022/05/30 05:52:54;;;;;;;1.85;1.75;;;21.00;55.10;;;;;;941475;149;27955;-74
2022/05/30 05:55:21;;;;;;;1.67;1.57;;;21.00;55.00;;;;;;942665;149;27398;-74
2022/05/30 05:57:47;;;;;;;3.47;1.90;;;21.00;55.00;;;;;;942496;149;27336;-74
2022/05/30 06:00:14;;;;;;;1.82;1.72;;;21.00;54.70;;;;;;942230;149;27455;-74
2022/05/30 06:02:41;;;;;;;2.72;1.82;;;21.00;54.40;;;;;;941451;149;27373;-74
2022/05/30 06:05:08;;;;;;;1.60;1.50;;;21.00;54.20;;;;;;942897;149;27337;-75
2022/05/30 06:07:34;;;;;;;1.77;1.67;;;21.00;54.10;;;;;;942208;149;27282;-74
2022/05/30 06:10:00;;;;;;;12.35;2.67;;;21.00;54.20;;;;;;942568;149;27294;-75
2022/05/30 06:12:27;;;;;;;1.70;1.60;;;21.10;54.10;;;;;;942516;149;27360;-75
2022/05/30 06:14:53;;;;;;;3.00;1.82;;;21.20;54.20;;;;;;942348;150;27446;-74
2022/05/30 06:17:20;;;;;;;1.40;1.30;;;21.40;54.40;;;;;;942534;149;27431;-74
2022/05/30 06:19:47;;;;;;;1.60;1.50;;;21.60;54.50;;;;;;942168;149;27297;-74
2022/05/30 06:22:13;;;;;;;1.55;1.45;;;22.00;54.60;;;;;;942284;149;27386;-74
2022/05/30 06:24:40;;;;;;;1.50;1.40;;;22.30;54.40;;;;;;942377;150;27718;-75
2022/05/30 06:27:06;;;;;;;1.95;1.47;;;22.80;54.00;;;;;;942759;149;27374;-74
2022/05/30 06:29:33;;;;;;;1.50;1.40;;;23.20;53.30;;;;;;942450;149;27451;-74
2022/05/30 06:32:00;;;;;;;2.35;1.45;;;23.50;52.60;;;;;;942096;149;27429;-74
2022/05/30 06:34:26;;;;;;;1.75;1.17;;;23.70;52.00;;;;;;942397;149;27323;-74
2022/05/30 06:36:53;;;;;;;1.32;1.30;;;23.90;51.10;;;;;;941837;149;28178;-74
2022/05/30 06:39:19;;;;;;;1.07;1.07;;;24.10;50.70;;;;;;942238;149;27365;-74
2022/05/30 06:41:48;;;;;;;1.07;1.07;;;24.30;50.90;;;;;;942432;149;27584;-74
2022/05/30 06:44:12;;;;;;;1.30;1.25;;;24.50;51.40;;;;;;942365;149;27373;-74
2022/05/30 06:46:39;;;;;;;1.05;1.05;;;25.00;51.90;;;;;;942940;149;27318;-75
2022/05/30 06:49:06;;;;;;;1.32;1.00;;;25.70;52.20;;;;;;942396;149;27323;-74
2022/05/30 06:51:34;;;;;;;1.75;1.47;;;26.50;52.00;;;;;;942223;149;27484;-75
2022/05/30 06:53:59;;;;;;;1.77;1.05;;;27.30;51.00;;;;;;942466;149;27439;-73
2022/05/30 06:56:28;;;;;;;0.98;0.98;;;28.10;50.00;;;;;;941760;149;27294;-72
2022/05/30 06:58:55;;;;;;;0.82;0.82;;;28.90;49.30;;;;;;941831;149;27315;-73
2022/05/30 07:01:21;;;;;;;1.25;1.07;;;29.70;48.40;;;;;;943112;149;27299;-73
2022/05/30 07:03:48;;;;;;;1.67;1.57;;;30.40;47.50;;;;;;942147;149;27342;-75
2022/05/30 07:06:15;;;;;;;1.10;1.00;;;31.10;46.20;;;;;;942494;149;27351;-73
2022/05/30 07:08:46;;;;;;;1.22;1.12;;;31.70;45.40;;;;;;940993;150;27311;-73
2022/05/30 07:11:08;;;;;;;1.15;1.00;;;32.40;44.40;;;;;;941978;149;27294;-72
2022/05/30 07:13:34;;;;;;;1.02;1.00;;;32.90;43.60;;;;;;941957;149;27322;-74
2022/05/30 07:16:01;;;;;;;0.53;0.53;;;33.40;42.90;;;;;;942786;149;27425;-74
2022/05/30 07:18:27;;;;;;;0.98;0.90;;;33.90;42.50;;;;;;941962;149;26268;-73
2022/05/30 07:20:57;;;;;;;0.75;0.62;;;34.40;41.70;;;;;;942416;149;26276;-72
2022/05/30 07:23:24;;;;;;;0.70;0.70;;;34.90;41.10;;;;;;942033;149;27362;-73
2022/05/30 07:25:50;;;;;;;0.50;0.50;;;35.40;39.70;;;;;;942138;149;26167;-74
2022/05/30 07:28:17;;;;;;;0.80;0.80;;;35.70;38.70;;;;;;942409;149;27433;-74
2022/05/30 07:30:43;;;;;;;0.70;0.70;;;35.90;38.20;;;;;;941224;149;26285;-73
2022/05/30 07:33:10;;;;;;;1.17;0.70;;;36.20;38.00;;;;;;942332;149;26394;-73
2022/05/30 07:35:36;;;;;;;1.40;0.70;;;36.40;37.10;;;;;;942273;149;26222;-73
2022/05/30 07:38:03;;;;;;;2.22;0.82;;;36.60;36.40;;;;;;941837;149;26237;-75
2022/05/30 07:40:30;;;;;;;1.15;1.05;;;36.70;35.80;;;;;;941953;149;26327;-73
2022/05/30 07:42:56;;;;;;;1.30;1.10;;;36.80;35.40;;;;;;942018;150;26273;-75
2022/05/30 07:45:23;;;;;;;0.70;0.68;;;36.80;35.20;;;;;;941851;149;26382;-73
2022/05/30 07:47:49;;;;;;;1.20;0.85;;;36.90;34.90;;;;;;940876;149;26215;-72
2022/05/30 07:50:16;;;;;;;3.02;0.80;;;37.00;34.30;;;;;;941809;149;26237;-73
2022/05/30 07:52:43;;;;;;;2.00;0.95;;;37.00;34.40;;;;;;942333;149;26374;-73
2022/05/30 07:55:09;;;;;;;0.60;0.55;;;37.20;34.00;;;;;;941793;149;26257;-75
2022/05/30 07:57:51;;;;;;;0.72;0.62;;;37.30;34.30;;;;;;939873;149;26272;-73
2022/05/30 08:00:18;;;;;;;0.40;0.40;;;37.40;33.60;;;;;;938708;149;27630;-73
2022/05/30 08:02:44;;;;;;;1.12;0.85;;;37.50;33.50;;;;;;940515;149;26236;-73
2022/05/30 08:05:11;;;;;;;0.75;0.53;;;37.70;33.00;;;;;;941396;149;26319;-73
2022/05/30 08:07:37;;;;;;;0.78;0.55;;;37.90;32.90;;;;;;941233;149;26233;-74
2022/05/30 08:10:04;;;;;;;0.80;0.60;;;38.00;32.30;;;;;;942326;149;26354;-75
2022/05/30 08:12:31;;;;;;;1.12;0.47;;;38.30;31.90;;;;;;941015;149;26264;-73
2022/05/30 08:14:57;;;;;;;0.50;0.50;;;38.50;31.30;;;;;;941446;149;27342;-73
2022/05/30 08:17:24;;;;;;;0.70;0.70;;;38.60;30.90;;;;;;941462;149;26332;-73
2022/05/30 08:19:50;;;;;;;0.85;0.68;;;38.70;30.70;;;;;;942067;149;26310;-74
2022/05/30 08:22:17;;;;;;;1.10;0.62;;;38.80;29.70;;;;;;942032;149;26350;-75
2022/05/30 08:24:43;;;;;;;0.62;0.40;;;38.80;29.50;;;;;;941928;149;27362;-73
2022/05/30 08:27:10;;;;;;;1.67;0.70;;;38.80;29.50;;;;;;940091;149;27438;-73
2022/05/30 08:29:36;;;;;;;1.27;0.60;;;38.80;29.50;;;;;;943975;148;26174;-74
2022/05/30 08:32:06;;;;;;;1.22;0.60;;;38.90;29.60;;;;;;937756;150;26303;-74
2022/05/30 08:34:36;;;;;;;1.42;0.68;;;38.90;29.30;;;;;;944474;148;27428;-74
2022/05/30 08:37:02;;;;;;;0.72;0.62;;;39.00;29.20;;;;;;929496;154;26284;-73
2022/05/30 08:42:13;;;;;;;1.55;0.62;;;39.20;28.90;;;;;;929025;154;26283;-74
2022/05/30 08:44:40;;;;;;;1.05;0.78;;;39.40;28.70;;;;;;938288;151;26338;-74
2022/05/30 08:47:06;;;;;;;1.37;0.85;;;39.50;28.30;;;;;;943915;151;27656;-74
2022/05/30 08:49:36;;;;;;;0.88;0.62;;;39.40;28.00;;;;;;944511;151;26270;-73
2022/05/30 08:52:30;;;;;;;0.80;0.53;;;39.40;28.10;;;;;;928396;151;26305;-72
2022/05/30 08:55:02;;;;;;;1.12;0.70;;;39.40;28.10;;;;;;944048;151;27355;-73
2022/05/30 08:57:53;;;;;;;1.00;0.70;;;39.40;28.00;;;;;;928876;153;26315;-73
2022/05/30 09:00:32;;;;;;;1.25;0.50;;;39.30;27.70;;;;;;944048;151;27327;-74
2022/05/30 09:03:10;;;;;;;1.85;0.62;;;39.10;27.50;;;;;;929467;154;26226;-75
2022/05/30 09:05:55;;;;;;;1.45;1.00;;;38.80;27.30;;;;;;888349;159;26433;-73
2022/05/30 09:08:24;;;;;;;2.65;0.47;;;38.50;27.20;;;;;;880265;163;26386;-73
2022/05/30 09:10:57;;;;;;;0.75;0.62;;;38.00;27.40;;;;;;894674;157;26421;-73
2022/05/30 09:13:23;;;;;;;1.02;0.65;;;37.80;27.50;;;;;;907545;154;26315;-72
2022/05/30 09:15:53;;;;;;;0.72;0.57;;;37.50;27.40;;;;;;926833;153;26280;-74
2022/05/30 09:18:22;;;;;;;1.95;0.82;;;37.30;27.40;;;;;;928425;151;27434;-72
2022/05/30 09:20:49;;;;;;;2.10;0.90;;;36.90;27.00;;;;;;927654;153;27912;-73
2022/05/30 09:23:16;;;;;;;1.02;0.60;;;36.50;27.00;;;;;;928331;152;27434;-73
2022/05/30 09:25:57;;;;;;;0.68;0.60;;;36.00;27.00;;;;;;943349;151;27768;-74
2022/05/30 09:28:33;;;;;;;2.52;0.75;;;35.40;26.90;;;;;;929530;154;27793;-74
2022/05/30 09:31:21;;;;;;;2.50;0.90;;;34.80;27.00;;;;;;943145;151;27464;-73
2022/05/30 09:33:50;;;;;;;0.57;0.57;;;34.20;27.20;;;;;;937331;150;27496;-73
2022/05/30 09:36:22;;;;;;;0.98;0.53;;;33.50;27.10;;;;;;943745;148;27374;-73
2022/05/30 09:38:49;;;;;;;2.35;0.78;;;32.90;27.50;;;;;;941915;150;27331;-73
2022/05/30 09:41:18;;;;;;;1.00;0.60;;;32.20;27.70;;;;;;941972;149;27359;-73
2022/05/30 09:43:51;;;;;;;1.02;0.70;;;31.50;28.00;;;;;;941650;149;27374;-73
2022/05/30 09:46:17;;;;;;;1.07;0.55;;;31.00;28.40;;;;;;940857;149;27334;-72
2022/05/30 09:48:46;;;;;;;0.60;0.50;;;30.40;28.80;;;;;;941150;149;27310;-73
2022/05/30 09:51:13;;;;;;;1.10;0.65;;;29.90;29.10;;;;;;931301;149;27351;-74
2022/05/30 09:53:41;;;;;;;1.05;0.72;;;29.50;29.40;;;;;;938841;149;27453;-73
2022/05/30 09:56:07;;;;;;;0.75;0.62;;;29.20;29.60;;;;;;940598;149;27419;-72
2022/05/30 09:58:45;;;;;;;0.93;0.60;;;28.80;29.70;;;;;;941831;149;27251;-73
2022/05/30 10:01:11;;;;;;;1.00;0.85;;;28.50;29.80;;;;;;940556;149;27463;-74
2022/05/30 10:03:38;;;;;;;1.65;0.80;;;28.20;30.00;;;;;;942222;149;27345;-74
2022/05/30 10:06:19;;;;;;;2.00;0.78;;;27.90;30.20;;;;;;942158;149;27450;-73
2022/05/30 10:08:46;;;;;;;1.22;0.80;;;27.70;30.50;;;;;;942159;149;27302;-72
2022/05/30 10:11:32;;;;;;;1.12;0.90;;;27.50;30.70;;;;;;941482;149;27334;-72
2022/05/30 10:13:57;;;;;;;1.02;0.70;;;27.30;31.20;;;;;;941037;149;27306;-73
2022/05/30 10:16:33;;;;;;;2.33;1.07;;;27.20;31.40;;;;;;941043;149;27746;-73
2022/05/30 10:19:02;;;;;;;0.95;0.93;;;27.10;31.70;;;;;;941824;149;27373;-72
2022/05/30 10:21:37;;;;;;;1.12;0.70;;;27.10;31.80;;;;;;942149;149;27335;-73
2022/05/30 10:30:09;;;;;;;0.80;0.68;;;27.00;31.90;;;;;;942364;149;27440;-74
2022/05/30 10:32:54;;;;;;;0.85;0.70;;;27.00;32.10;;;;;;941362;149;27777;-74
2022/05/30 10:35:39;;;;;;;1.00;0.70;;;27.00;32.20;;;;;;928630;149;27442;-74
2022/05/30 10:38:11;;;;;;;2.75;0.78;;;27.00;32.20;;;;;;932179;151;27358;-75
2022/05/30 10:40:43;;;;;;;1.57;0.82;;;27.00;32.30;;;;;;928618;154;27384;-74
2022/05/30 10:43:18;;;;;;;1.72;0.70;;;27.10;32.40;;;;;;912567;154;27558;-74
2022/05/30 10:45:45;;;;;;;0.60;0.60;;;27.10;32.40;;;;;;911717;154;27500;-74
2022/05/30 10:48:12;;;;;;;0.88;0.60;;;27.20;32.40;;;;;;912453;154;27418;-74
2022/05/30 10:50:45;;;;;;;0.68;0.68;;;27.20;32.10;;;;;;924137;151;27318;-74
2022/05/30 10:53:10;;;;;;;1.30;0.90;;;27.30;32.00;;;;;;913119;154;27548;-74
2022/05/30 10:55:37;;;;;;;1.00;0.55;;;27.20;31.50;;;;;;926611;152;27350;-73
2022/05/30 10:58:06;;;;;;;2.17;0.62;;;27.10;31.50;;;;;;925935;152;27488;-73
2022/05/30 11:00:33;;;;;;;1.77;0.72;;;27.00;31.70;;;;;;921847;154;27329;-73
2022/05/30 11:03:02;;;;;;;0.70;0.70;;;26.90;32.00;;;;;;922174;154;27499;-75
2022/05/30 11:05:44;;;;;;;0.88;0.60;;;26.80;32.30;;;;;;928410;151;27479;-73
2022/05/30 11:08:14;;;;;;;1.05;0.80;;;26.80;32.50;;;;;;928682;154;27355;-73
2022/05/30 11:10:40;;;;;;;0.75;0.75;;;26.80;32.30;;;;;;930057;154;27314;-73
2022/05/30 11:13:27;;;;;;;1.60;0.80;;;26.80;32.30;;;;;;928800;154;27405;-73
2022/05/30 11:15:54;;;;;;;0.85;0.70;;;26.80;32.20;;;;;;901801;154;27382;-73
2022/05/30 11:18:45;;;;;;;1.20;0.50;;;26.70;31.90;;;;;;928263;154;27468;-73
2022/05/30 11:21:20;;;;;;;1.17;1.07;;;26.70;31.80;;;;;;930229;151;27457;-73
2022/05/30 11:23:47;;;;;;;0.72;0.70;;;26.60;31.70;;;;;;930210;154;27405;-74
2022/05/30 11:26:19;;;;;;;0.95;0.70;;;26.40;31.60;;;;;;929785;154;27303;-73
2022/05/30 11:28:55;;;;;;;1.82;0.70;;;26.30;31.90;;;;;;926253;154;28665;-75
2022/05/30 11:31:56;;;;;;;2.47;0.85;;;26.10;32.10;;;;;;924121;155;27488;-73
2022/05/30 11:34:53;;;;;;;1.37;0.70;;;26.00;32.10;;;;;;926151;148;27314;-75
2022/05/30 11:37:19;;;;;;;1.42;0.70;;;25.80;31.90;;;;;;952485;150;27389;-74
2022/05/30 11:39:49;;;;;;;0.98;0.90;;;25.60;32.10;;;;;;951948;150;27296;-74
2022/05/30 11:42:21;;;;;;;1.30;0.70;;;25.40;32.30;;;;;;946584;150;27341;-74
2022/05/30 11:44:57;;;;;;;1.15;0.55;;;25.30;32.40;;;;;;952759;149;27430;-74
2022/05/30 11:47:32;;;;;;;0.53;0.53;;;25.20;32.50;;;;;;921161;149;27419;-74
2022/05/30 11:50:10;;;;;;;0.72;0.60;;;25.00;32.40;;;;;;951443;149;27462;-73
2022/05/30 11:52:55;;;;;;;0.42;0.42;;;25.00;32.60;;;;;;952753;150;27347;-74
2022/05/30 11:55:24;;;;;;;2.60;0.88;;;24.90;32.60;;;;;;953375;148;27296;-73
2022/05/30 11:58:00;;;;;;;0.60;0.60;;;24.90;32.80;;;;;;952774;149;27428;-74
2022/05/30 12:00:32;;;;;;;0.85;0.85;;;24.90;32.90;;;;;;952098;149;27354;-74
2022/05/30 12:02:59;;;;;;;0.75;0.50;;;24.90;32.90;;;;;;952875;150;27386;-73
2022/05/30 12:05:28;;;;;;;1.85;0.72;;;24.80;32.90;;;;;;952498;150;27333;-73
2022/05/30 12:08:12;;;;;;;0.60;0.55;;;24.70;32.90;;;;;;952724;149;27347;-74
2022/05/30 12:10:47;;;;;;;0.95;0.82;;;24.70;32.80;;;;;;952141;149;27437;-74
2022/05/30 12:13:17;;;;;;;0.95;0.78;;;24.50;32.70;;;;;;951801;150;27311;-73
2022/05/30 12:16:09;;;;;;;1.15;0.80;;;24.30;32.80;;;;;;953193;148;27349;-74
2022/05/30 12:24:13;;;;;;;1.17;0.70;;;23.80;33.70;;;;;;953222;150;27354;-73
2022/05/30 12:26:48;;;;;;;3.33;0.70;;;23.70;34.00;;;;;;953532;148;27592;-73
2022/05/30 12:29:39;;;;;;;0.82;0.75;;;23.60;34.10;;;;;;951789;148;27379;-73
2022/05/30 12:32:21;;;;;;;0.45;0.45;;;23.60;34.30;;;;;;952644;150;27788;-74
2022/05/30 12:37:44;;;;;;;0.50;0.50;;;23.40;34.40;;;;;;952987;150;27504;-73
2022/05/30 12:40:19;;;;;;;0.85;0.68;;;23.30;34.30;;;;;;952747;150;27419;-74
2022/05/30 12:42:46;;;;;;;0.50;0.50;;;23.20;34.40;;;;;;962586;146;27263;-74
2022/05/30 12:45:13;;;;;;;0.47;0.47;;;23.20;34.70;;;;;;949699;149;27331;-74
2022/05/30 12:47:39;;;;;;;1.40;0.90;;;23.20;35.10;;;;;;952639;149;27334;-74
2022/05/30 12:50:24;;;;;;;1.22;0.55;;;23.20;35.50;;;;;;950960;149;27333;-73
2022/05/30 12:52:53;;;;;;;0.90;0.70;;;23.20;35.60;;;;;;951673;149;27463;-74
2022/05/30 12:55:20;;;;;;;2.02;1.00;;;23.30;35.60;;;;;;953006;150;27325;-74
2022/05/30 12:57:46;;;;;;;1.00;0.72;;;23.40;35.80;;;;;;952173;149;27301;-73
2022/05/30 13:00:16;;;;;;;1.22;0.80;;;23.50;35.90;;;;;;952623;148;27307;-74
2022/05/30 13:02:57;;;;;;;1.80;0.95;;;23.70;36.10;;;;;;950804;150;27415;-73
2022/05/30 13:05:26;;;;;;;1.87;1.00;;;23.80;36.00;;;;;;952326;149;27376;-74
2022/05/30 13:07:52;;;;;;;0.98;0.78;;;23.80;36.00;;;;;;952649;149;27375;-74
2022/05/30 13:10:19;;;;;;;1.20;0.95;;;23.80;36.00;;;;;;953576;148;27315;-74
2022/05/30 13:12:56;;;;;;;0.70;0.70;;;23.80;35.90;;;;;;953460;148;27434;-73
2022/05/30 13:15:24;;;;;;;2.08;0.98;;;23.70;35.70;;;;;;951667;149;27326;-74
2022/05/30 13:17:53;;;;;;;2.77;0.75;;;23.70;35.90;;;;;;953002;149;27384;-74
2022/05/30 13:20:35;;;;;;;0.90;0.60;;;23.70;35.90;;;;;;952186;149;27456;-73
2022/05/30 13:23:01;;;;;;;1.25;1.07;;;23.70;35.80;;;;;;953184;150;27357;-73
2022/05/30 13:25:28;;;;;;;0.55;0.53;;;23.70;35.70;;;;;;952917;148;27392;-73